Time,TemperatureF,DewpointF,PressureIn,WindDirection,WindDirectionDegrees,WindSpeedMPH,WindSpeedGustMPH,Humidity,HourlyPrecipIn,Conditions,Clouds,dailyrainin,SoftwareType,DateUTC
2013-06-22 00:01:00,65.4,60.4,30.23,South,190,0.0,0.0,84,0.00,,,0.00,Wunderground v.1.15,2013-06-22 04:01:00,
2013-06-22 00:03:00,65.3,60.7,30.23,South,190,0.0,0.0,85,0.00,,,0.00,Wunderground v.1.15,2013-06-22 04:03:00,
2013-06-22 00:08:00,65.2,60.6,30.23,South,190,0.0,1.0,85,0.00,,,0.00,Wunderground v.1.15,2013-06-22 04:08:00,
2013-06-22 00:10:00,65.1,60.5,30.22,South,190,0.0,0.0,85,0.00,,,0.00,Wunderground v.1.15,2013-06-22 04:10:00,
2013-06-22 00:15:00,65.0,60.4,30.22,South,190,0.0,1.0,85,0.00,,,0.00,Wunderground v.1.15,2013-06-22 04:15:00,
2013-06-22 00:20:00,65.1,60.8,30.22,SSW,210,0.0,1.0,86,0.00,,,0.00,Wunderground v.1.15,2013-06-22 04:20:00,
2013-06-22 00:22:00,65.2,60.9,30.22,SSW,210,0.0,2.0,86,0.00,,,0.00,Wunderground v.1.15,2013-06-22 04:22:00,
2013-06-22 00:27:00,65.2,60.9,30.22,SSW,210,0.0,2.0,86,0.00,,,0.00,Wunderground v.1.15,2013-06-22 04:27:00,
2013-06-22 00:32:00,65.1,60.8,30.22,SSW,210,0.0,0.0,86,0.00,,,0.00,Wunderground v.1.15,2013-06-22 04:32:00,
2013-06-22 00:37:00,64.9,60.6,30.22,SSW,210,0.0,0.0,86,0.00,,,0.00,Wunderground v.1.15,2013-06-22 04:37:00,
2013-06-22 00:42:00,64.8,60.5,30.22,SSW,210,0.0,0.0,86,0.00,,,0.00,Wunderground v.1.15,2013-06-22 04:42:00,
2013-06-22 00:47:00,64.5,60.2,30.22,SSW,210,0.0,0.0,86,0.00,,,0.00,Wunderground v.1.15,2013-06-22 04:47:00,
2013-06-22 00:52:00,64.4,60.4,30.22,SSW,210,0.0,0.0,87,0.00,,,0.00,Wunderground v.1.15,2013-06-22 04:52:00,
2013-06-22 00:57:00,64.3,60.3,30.22,SSW,210,0.0,0.0,87,0.00,,,0.00,Wunderground v.1.15,2013-06-22 04:57:00,
2013-06-22 01:03:00,64.1,60.2,30.22,SSW,210,0.0,0.0,87,0.00,,,0.00,Wunderground v.1.15,2013-06-22 05:03:00,
2013-06-22 01:08:00,64.0,60.4,30.22,SSW,210,0.0,0.0,88,0.00,,,0.00,Wunderground v.1.15,2013-06-22 05:08:00,
2013-06-22 01:14:00,63.7,60.1,30.22,SSW,210,0.0,0.0,88,0.00,,,0.00,Wunderground v.1.15,2013-06-22 05:14:00,
2013-06-22 01:19:00,63.6,60.0,30.22,SSW,210,0.0,0.0,88,0.00,,,0.00,Wunderground v.1.15,2013-06-22 05:19:00,
2013-06-22 01:25:00,63.4,59.8,30.22,SSW,210,0.0,0.0,88,0.00,,,0.00,Wunderground v.1.15,2013-06-22 05:25:00,
2013-06-22 01:30:00,63.3,60.0,30.22,SSW,210,0.0,0.0,89,0.00,,,0.00,Wunderground v.1.15,2013-06-22 05:30:00,
2013-06-22 01:36:00,63.2,59.9,30.22,SSW,210,0.0,0.0,89,0.00,,,0.00,Wunderground v.1.15,2013-06-22 05:36:00,
2013-06-22 01:41:00,63.0,59.7,30.22,SSW,210,0.0,0.0,89,0.00,,,0.00,Wunderground v.1.15,2013-06-22 05:41:00,
2013-06-22 01:47:00,63.0,59.7,30.22,SSW,210,0.0,0.0,89,0.00,,,0.00,Wunderground v.1.15,2013-06-22 05:47:00,
2013-06-22 01:52:00,63.0,59.7,30.22,SSW,210,0.0,0.0,89,0.00,,,0.00,Wunderground v.1.15,2013-06-22 05:52:00,
2013-06-22 01:58:00,63.0,60.0,30.23,SSW,210,0.0,0.0,90,0.00,,,0.00,Wunderground v.1.15,2013-06-22 05:58:00,
2013-06-22 02:03:00,62.9,59.9,30.23,SSW,210,0.0,0.0,90,0.00,,,0.00,Wunderground v.1.15,2013-06-22 06:03:00,
2013-06-22 02:09:00,62.7,59.7,30.23,SSW,210,0.0,0.0,90,0.00,,,0.00,Wunderground v.1.15,2013-06-22 06:09:00,
2013-06-22 02:14:00,62.6,59.6,30.23,SSW,210,0.0,0.0,90,0.00,,,0.00,Wunderground v.1.15,2013-06-22 06:14:00,
2013-06-22 02:20:00,62.4,59.4,30.22,SSW,210,0.0,0.0,90,0.00,,,0.00,Wunderground v.1.15,2013-06-22 06:20:00,
2013-06-22 02:25:00,62.3,59.3,30.22,SSW,210,0.0,0.0,90,0.00,,,0.00,Wunderground v.1.15,2013-06-22 06:25:00,
2013-06-22 02:31:00,62.2,59.2,30.22,SSW,210,0.0,0.0,90,0.00,,,0.00,Wunderground v.1.15,2013-06-22 06:31:00,
2013-06-22 02:36:00,62.1,59.1,30.22,SSW,210,0.0,0.0,90,0.00,,,0.00,Wunderground v.1.15,2013-06-22 06:36:00,
2013-06-22 02:42:00,62.0,59.3,30.22,SSW,210,0.0,0.0,91,0.00,,,0.00,Wunderground v.1.15,2013-06-22 06:42:00,
2013-06-22 02:48:00,61.9,58.9,30.22,SSW,210,0.0,0.0,90,0.00,,,0.00,Wunderground v.1.15,2013-06-22 06:48:00,
2013-06-22 02:54:00,61.8,59.1,30.22,SSW,210,0.0,0.0,91,0.00,,,0.00,Wunderground v.1.15,2013-06-22 06:54:00,
2013-06-22 02:59:00,61.9,59.2,30.22,SSW,210,0.0,0.0,91,0.00,,,0.00,Wunderground v.1.15,2013-06-22 06:59:00,
2013-06-22 03:04:00,62.0,59.3,30.22,SSW,210,0.0,0.0,91,0.00,,,0.00,Wunderground v.1.15,2013-06-22 07:04:00,
2013-06-22 03:09:00,61.8,59.1,30.22,SSW,210,0.0,0.0,91,0.00,,,0.00,Wunderground v.1.15,2013-06-22 07:09:00,
2013-06-22 03:14:00,61.9,59.2,30.22,SSW,210,0.0,0.0,91,0.00,,,0.00,Wunderground v.1.15,2013-06-22 07:14:00,
2013-06-22 03:19:00,61.9,59.2,30.21,SSW,210,0.0,0.0,91,0.00,,,0.00,Wunderground v.1.15,2013-06-22 07:19:00,
2013-06-22 03:24:00,61.8,59.1,30.21,SSW,210,0.0,0.0,91,0.00,,,0.00,Wunderground v.1.15,2013-06-22 07:24:00,
2013-06-22 03:29:00,61.7,59.0,30.21,SSW,210,0.0,0.0,91,0.00,,,0.00,Wunderground v.1.15,2013-06-22 07:29:00,
2013-06-22 03:34:00,61.6,58.9,30.21,SSW,210,0.0,0.0,91,0.00,,,0.00,Wunderground v.1.15,2013-06-22 07:34:00,
2013-06-22 03:39:00,61.7,59.4,30.21,SSW,210,0.0,0.0,92,0.00,,,0.00,Wunderground v.1.15,2013-06-22 07:39:00,
2013-06-22 03:45:00,61.6,59.3,30.21,SSW,210,0.0,1.0,92,0.00,,,0.00,Wunderground v.1.15,2013-06-22 07:45:00,
2013-06-22 03:50:00,61.7,59.4,30.21,SSW,210,0.0,0.0,92,0.00,,,0.00,Wunderground v.1.15,2013-06-22 07:50:00,
2013-06-22 03:55:00,61.8,59.5,30.21,SSW,210,0.0,1.0,92,0.00,,,0.00,Wunderground v.1.15,2013-06-22 07:55:00,
2013-06-22 04:00:00,61.8,59.5,30.21,SSW,210,0.0,0.0,92,0.00,,,0.00,Wunderground v.1.15,2013-06-22 08:00:00,
2013-06-22 04:05:00,61.8,59.5,30.21,SSW,210,0.0,1.0,92,0.00,,,0.00,Wunderground v.1.15,2013-06-22 08:05:00,
2013-06-22 04:10:00,61.7,59.4,30.21,SSW,210,0.0,0.0,92,0.00,,,0.00,Wunderground v.1.15,2013-06-22 08:10:00,
2013-06-22 04:15:00,61.7,59.4,30.21,SSW,210,0.0,0.0,92,0.00,,,0.00,Wunderground v.1.15,2013-06-22 08:15:00,
2013-06-22 04:20:00,61.7,59.4,30.21,SSW,210,0.0,0.0,92,0.00,,,0.00,Wunderground v.1.15,2013-06-22 08:20:00,
2013-06-22 04:25:00,61.6,58.9,30.21,SSW,210,0.0,0.0,91,0.00,,,0.00,Wunderground v.1.15,2013-06-22 08:25:00,
2013-06-22 04:30:00,61.6,58.9,30.21,SSW,210,0.0,0.0,91,0.00,,,0.00,Wunderground v.1.15,2013-06-22 08:30:00,
2013-06-22 04:35:00,61.4,58.7,30.21,SSW,210,0.0,0.0,91,0.00,,,0.00,Wunderground v.1.15,2013-06-22 08:35:00,
2013-06-22 04:40:00,61.3,58.7,30.21,SSW,210,0.0,0.0,91,0.00,,,0.00,Wunderground v.1.15,2013-06-22 08:40:00,
2013-06-22 04:45:00,61.3,58.7,30.21,SSW,210,0.0,0.0,91,0.00,,,0.00,Wunderground v.1.15,2013-06-22 08:45:00,
2013-06-22 04:50:00,61.3,58.7,30.21,SSW,210,0.0,0.0,91,0.00,,,0.00,Wunderground v.1.15,2013-06-22 08:50:00,
2013-06-22 04:55:00,61.2,58.6,30.21,SSW,210,0.0,0.0,91,0.00,,,0.00,Wunderground v.1.15,2013-06-22 08:55:00,
2013-06-22 05:00:00,61.2,58.6,30.22,SSW,210,0.0,0.0,91,0.00,,,0.00,Wunderground v.1.15,2013-06-22 09:00:00,
2013-06-22 05:05:00,61.1,58.8,30.22,SSW,210,0.0,0.0,92,0.00,,,0.00,Wunderground v.1.15,2013-06-22 09:05:00,
2013-06-22 05:10:00,61.0,58.7,30.22,ESE,102,0.0,0.0,92,0.00,,,0.00,Wunderground v.1.15,2013-06-22 09:10:00,
2013-06-22 05:15:00,60.9,58.6,30.21,ENE,75,0.0,1.0,92,0.00,,,0.00,Wunderground v.1.15,2013-06-22 09:15:00,
2013-06-22 05:20:00,60.9,58.6,30.22,ENE,75,0.0,0.0,92,0.00,,,0.00,Wunderground v.1.15,2013-06-22 09:20:00,
2013-06-22 05:25:00,60.9,58.6,30.22,ENE,66,0.0,0.0,92,0.00,,,0.00,Wunderground v.1.15,2013-06-22 09:25:00,
2013-06-22 05:30:00,61.0,58.7,30.21,North,355,0.0,0.0,92,0.00,,,0.00,Wunderground v.1.15,2013-06-22 09:30:00,
2013-06-22 05:35:00,61.0,58.7,30.22,WSW,244,0.0,0.0,92,0.00,,,0.00,Wunderground v.1.15,2013-06-22 09:35:00,
2013-06-22 05:40:00,61.0,58.7,30.21,West,276,0.0,0.0,92,0.00,,,0.00,Wunderground v.1.15,2013-06-22 09:40:00,
2013-06-22 05:45:00,61.1,58.8,30.21,West,276,0.0,2.0,92,0.00,,,0.00,Wunderground v.1.15,2013-06-22 09:45:00,
2013-06-22 05:50:00,61.4,59.1,30.21,SSW,211,1.0,2.0,92,0.00,,,0.00,Wunderground v.1.15,2013-06-22 09:50:00,
2013-06-22 05:55:00,61.7,59.4,30.21,ESE,121,0.0,2.0,92,0.00,,,0.00,Wunderground v.1.15,2013-06-22 09:55:00,
2013-06-22 06:00:00,62.0,59.3,30.21,South,183,0.0,1.0,91,0.00,,,0.00,Wunderground v.1.15,2013-06-22 10:00:00,
2013-06-22 06:05:00,62.3,59.3,30.21,South,183,0.0,3.0,90,0.00,,,0.00,Wunderground v.1.15,2013-06-22 10:05:00,
2013-06-22 06:10:00,62.7,59.7,30.21,South,183,0.0,2.0,90,0.00,,,0.00,Wunderground v.1.15,2013-06-22 10:10:00,
2013-06-22 06:15:00,63.0,59.7,30.21,SW,231,0.0,4.0,89,0.00,,,0.00,Wunderground v.1.15,2013-06-22 10:15:00,
2013-06-22 06:20:00,63.3,59.7,30.21,WSW,240,0.0,0.0,88,0.00,,,0.00,Wunderground v.1.15,2013-06-22 10:20:00,
2013-06-22 06:25:00,63.7,59.8,30.21,West,259,0.0,0.0,87,0.00,,,0.00,Wunderground v.1.15,2013-06-22 10:25:00,
2013-06-22 06:30:00,64.0,59.7,30.21,West,279,0.0,0.0,86,0.00,,,0.00,Wunderground v.1.15,2013-06-22 10:30:00,
2013-06-22 06:35:00,64.5,59.9,30.22,West,279,0.0,0.0,85,0.00,,,0.00,Wunderground v.1.15,2013-06-22 10:35:00,
2013-06-22 06:40:00,64.9,59.9,30.22,West,261,0.0,0.0,84,0.00,,,0.00,Wunderground v.1.15,2013-06-22 10:40:00,
2013-06-22 06:45:00,65.2,59.9,30.22,South,176,0.0,2.0,83,0.00,,,0.00,Wunderground v.1.15,2013-06-22 10:45:00,
2013-06-22 06:50:00,65.6,60.0,30.22,South,182,0.0,0.0,82,0.00,,,0.00,Wunderground v.1.15,2013-06-22 10:50:00,
2013-06-22 06:55:00,66.0,60.0,30.22,South,182,1.0,2.0,81,0.00,,,0.00,Wunderground v.1.15,2013-06-22 10:55:00,
2013-06-22 07:00:00,66.3,60.3,30.21,SSW,198,0.0,1.0,81,0.00,,,0.00,Wunderground v.1.15,2013-06-22 11:00:00,
2013-06-22 07:06:00,66.6,60.2,30.21,SW,234,0.0,4.0,80,0.00,,,0.00,Wunderground v.1.15,2013-06-22 11:06:00,
2013-06-22 07:11:00,66.9,60.5,30.21,SW,229,0.0,1.0,80,0.00,,,0.00,Wunderground v.1.15,2013-06-22 11:11:00,
2013-06-22 07:16:00,67.4,60.7,30.20,SSE,159,0.0,4.0,79,0.00,,,0.00,Wunderground v.1.15,2013-06-22 11:16:00,
2013-06-22 07:21:00,67.9,61.1,30.20,SSE,165,0.0,0.0,79,0.00,,,0.00,Wunderground v.1.15,2013-06-22 11:21:00,
2013-06-22 07:26:00,68.1,60.6,30.21,SSW,194,0.0,1.0,77,0.00,,,0.00,Wunderground v.1.15,2013-06-22 11:26:00,
2013-06-22 07:31:00,68.3,60.8,30.20,WSW,252,0.0,1.0,77,0.00,,,0.00,Wunderground v.1.15,2013-06-22 11:31:00,
2013-06-22 07:36:00,68.5,60.6,30.20,SW,230,3.0,5.0,76,0.00,,,0.00,Wunderground v.1.15,2013-06-22 11:36:00,
2013-06-22 07:41:00,68.5,60.3,30.20,SW,221,0.0,5.0,75,0.00,,,0.00,Wunderground v.1.15,2013-06-22 11:41:00,
2013-06-22 07:46:00,68.6,60.4,30.20,South,171,4.0,6.0,75,0.00,,,0.00,Wunderground v.1.15,2013-06-22 11:46:00,
2013-06-22 07:51:00,68.9,60.6,30.20,SW,236,10.0,10.0,75,0.00,,,0.00,Wunderground v.1.15,2013-06-22 11:51:00,
2013-06-22 07:56:00,69.0,60.7,30.20,SW,233,6.0,10.0,75,0.00,,,0.00,Wunderground v.1.15,2013-06-22 11:56:00,
2013-06-22 08:01:00,69.2,60.2,30.20,SW,234,0.0,3.0,73,0.00,,,0.00,Wunderground v.1.15,2013-06-22 12:01:00,
2013-06-22 08:06:00,69.7,61.0,30.20,WSW,255,6.0,6.0,74,0.00,,,0.00,Wunderground v.1.15,2013-06-22 12:06:00,
2013-06-22 08:11:00,69.8,60.8,30.21,SSW,210,3.0,5.0,73,0.00,,,0.00,Wunderground v.1.15,2013-06-22 12:11:00,
2013-06-22 08:16:00,69.8,60.4,30.20,SSW,209,5.0,9.0,72,0.00,,,0.00,Wunderground v.1.15,2013-06-22 12:16:00,
2013-06-22 08:21:00,70.0,60.9,30.20,WSW,238,2.0,6.0,73,0.00,,,0.00,Wunderground v.1.15,2013-06-22 12:21:00,
2013-06-22 08:26:00,70.6,61.5,30.20,South,175,0.0,6.0,73,0.00,,,0.00,Wunderground v.1.15,2013-06-22 12:26:00,
2013-06-22 08:31:00,71.2,61.7,30.20,WNW,298,0.0,2.0,72,0.00,,,0.00,Wunderground v.1.15,2013-06-22 12:31:00,
2013-06-22 08:36:00,71.8,62.3,30.20,SSW,200,6.0,6.0,72,0.00,,,0.00,Wunderground v.1.15,2013-06-22 12:36:00,
2013-06-22 08:41:00,71.9,61.6,30.20,SSW,194,0.0,6.0,70,0.00,,,0.00,Wunderground v.1.15,2013-06-22 12:41:00,
2013-06-22 08:46:00,72.0,61.7,30.20,SW,229,3.0,7.0,70,0.00,,,0.00,Wunderground v.1.15,2013-06-22 12:46:00,
2013-06-22 08:51:00,72.1,62.2,30.20,West,273,0.0,4.0,71,0.00,,,0.00,Wunderground v.1.15,2013-06-22 12:51:00,
2013-06-22 08:56:00,72.3,61.6,30.20,SW,231,0.0,7.0,69,0.00,,,0.00,Wunderground v.1.15,2013-06-22 12:56:00,
2013-06-22 09:01:00,72.2,61.5,30.20,WSW,248,6.0,9.0,69,0.00,,,0.00,Wunderground v.1.15,2013-06-22 13:01:00,
2013-06-22 09:06:00,72.2,61.5,30.20,SSW,202,3.0,10.0,69,0.00,,,0.00,Wunderground v.1.15,2013-06-22 13:06:00,
2013-06-22 09:11:00,72.4,61.7,30.20,WSW,238,7.0,8.0,69,0.00,,,0.00,Wunderground v.1.15,2013-06-22 13:11:00,
2013-06-22 09:16:00,72.6,61.8,30.20,WSW,257,2.0,8.0,69,0.00,,,0.00,Wunderground v.1.15,2013-06-22 13:16:00,
2013-06-22 09:21:00,72.9,62.1,30.20,SW,220,1.0,5.0,69,0.00,,,0.00,Wunderground v.1.15,2013-06-22 13:21:00,
2013-06-22 09:26:00,73.2,62.0,30.20,SW,235,6.0,7.0,68,0.00,,,0.00,Wunderground v.1.15,2013-06-22 13:26:00,
2013-06-22 09:31:00,73.5,62.3,30.20,West,261,3.0,6.0,68,0.00,,,0.00,Wunderground v.1.15,2013-06-22 13:31:00,
2013-06-22 09:36:00,74.0,62.3,30.20,WSW,252,0.0,6.0,67,0.00,,,0.00,Wunderground v.1.15,2013-06-22 13:36:00,
2013-06-22 09:41:00,73.9,62.7,30.21,South,171,0.0,4.0,68,0.00,,,0.00,Wunderground v.1.15,2013-06-22 13:41:00,
2013-06-22 09:46:00,73.9,62.2,30.20,SW,217,0.0,7.0,67,0.00,,,0.00,Wunderground v.1.15,2013-06-22 13:46:00,
2013-06-22 09:51:00,73.8,62.6,30.20,WSW,257,4.0,7.0,68,0.00,,,0.00,Wunderground v.1.15,2013-06-22 13:51:00,
2013-06-22 09:56:00,74.1,63.3,30.20,South,169,4.0,10.0,69,0.00,,,0.00,Wunderground v.1.15,2013-06-22 13:56:00,
2013-06-22 10:01:00,74.1,62.9,30.20,WSW,258,2.0,5.0,68,0.00,,,0.00,Wunderground v.1.15,2013-06-22 14:01:00,
2013-06-22 10:06:00,74.1,62.9,30.21,WSW,257,3.0,10.0,68,0.00,,,0.00,Wunderground v.1.15,2013-06-22 14:06:00,
2013-06-22 10:11:00,74.0,62.8,30.21,SW,233,1.0,7.0,68,0.00,,,0.00,Wunderground v.1.15,2013-06-22 14:11:00,
2013-06-22 10:16:00,73.9,63.1,30.21,SSW,211,3.0,7.0,69,0.00,,,0.00,Wunderground v.1.15,2013-06-22 14:16:00,
2013-06-22 10:21:00,73.9,62.7,30.21,SW,230,3.0,5.0,68,0.00,,,0.00,Wunderground v.1.15,2013-06-22 14:21:00,
2013-06-22 10:26:00,74.3,63.9,30.20,South,175,0.0,7.0,70,0.00,,,0.00,Wunderground v.1.15,2013-06-22 14:26:00,
2013-06-22 10:31:00,74.6,63.8,30.20,WNW,292,0.0,3.0,69,0.00,,,0.00,Wunderground v.1.15,2013-06-22 14:31:00,
2013-06-22 10:36:00,75.3,64.4,30.20,South,169,0.0,7.0,69,0.00,,,0.00,Wunderground v.1.15,2013-06-22 14:36:00,
2013-06-22 10:41:00,76.0,64.7,30.21,SSW,211,0.0,9.0,68,0.00,,,0.00,Wunderground v.1.15,2013-06-22 14:41:00,
2013-06-22 10:46:00,76.5,65.1,30.21,WSW,244,2.0,9.0,68,0.00,,,0.00,Wunderground v.1.15,2013-06-22 14:46:00,
2013-06-22 10:51:00,77.0,65.2,30.21,SW,232,4.0,6.0,67,0.00,,,0.00,Wunderground v.1.15,2013-06-22 14:51:00,
2013-06-22 10:56:00,77.5,64.8,30.21,South,187,4.0,6.0,65,0.00,,,0.00,Wunderground v.1.15,2013-06-22 14:56:00,
2013-06-22 11:02:00,77.7,65.9,30.21,SSW,197,0.0,6.0,67,0.00,,,0.00,Wunderground v.1.15,2013-06-22 15:02:00,
2013-06-22 11:07:00,78.4,65.7,30.21,SSW,209,4.0,6.0,65,0.00,,,0.00,Wunderground v.1.15,2013-06-22 15:07:00,
2013-06-22 11:11:00,79.1,65.9,30.21,SSE,163,3.0,6.0,64,0.00,,,0.00,Wunderground v.1.15,2013-06-22 15:11:00,
2013-06-22 11:16:00,79.6,66.3,30.21,West,263,2.0,6.0,64,0.00,,,0.00,Wunderground v.1.15,2013-06-22 15:16:00,
2013-06-22 11:21:00,79.7,66.0,30.21,SSE,163,1.0,5.0,63,0.00,,,0.00,Wunderground v.1.15,2013-06-22 15:21:00,
2013-06-22 11:26:00,79.6,65.9,30.21,SW,228,0.0,7.0,63,0.00,,,0.00,Wunderground v.1.15,2013-06-22 15:26:00,
2013-06-22 11:32:00,79.4,65.7,30.20,SSW,210,3.0,7.0,63,0.00,,,0.00,Wunderground v.1.15,2013-06-22 15:32:00,
2013-06-22 11:36:00,79.6,65.9,30.20,SSW,195,5.0,7.0,63,0.00,,,0.00,Wunderground v.1.15,2013-06-22 15:36:00,
2013-06-22 11:41:00,79.7,66.9,30.20,WNW,291,0.0,4.0,65,0.00,,,0.00,Wunderground v.1.15,2013-06-22 15:41:00,
2013-06-22 11:47:00,80.2,66.9,30.20,SSW,200,5.0,11.0,64,0.00,,,0.00,Wunderground v.1.15,2013-06-22 15:47:00,
2013-06-22 11:52:00,80.4,66.6,30.20,SSW,209,10.0,14.0,63,0.00,,,0.00,Wunderground v.1.15,2013-06-22 15:52:00,
2013-06-22 11:57:00,80.7,66.5,30.20,NW,324,0.0,14.0,62,0.00,,,0.00,Wunderground v.1.15,2013-06-22 15:57:00,
2013-06-22 12:02:00,81.0,66.3,30.20,SSW,197,5.0,11.0,61,0.00,,,0.00,Wunderground v.1.15,2013-06-22 16:02:00,
2013-06-22 12:07:00,81.1,65.9,30.20,South,170,6.0,12.0,60,0.00,,,0.00,Wunderground v.1.15,2013-06-22 16:07:00,
2013-06-22 12:12:00,81.0,65.8,30.20,South,180,1.0,10.0,60,0.00,,,0.00,Wunderground v.1.15,2013-06-22 16:12:00,
2013-06-22 12:17:00,81.0,65.8,30.19,WSW,248,0.0,12.0,60,0.00,,,0.00,Wunderground v.1.15,2013-06-22 16:17:00,
2013-06-22 12:22:00,81.3,65.1,30.20,SW,234,4.0,16.0,58,0.00,,,0.00,Wunderground v.1.15,2013-06-22 16:22:00,
2013-06-22 12:27:00,81.5,64.8,30.19,SW,215,9.0,16.0,57,0.00,,,0.00,Wunderground v.1.15,2013-06-22 16:27:00,
2013-06-22 12:32:00,81.9,65.7,30.19,WSW,249,4.0,7.0,58,0.00,,,0.00,Wunderground v.1.15,2013-06-22 16:32:00,
2013-06-22 12:37:00,81.9,65.7,30.19,South,185,3.0,12.0,58,0.00,,,0.00,Wunderground v.1.15,2013-06-22 16:37:00,
2013-06-22 12:42:00,81.5,64.8,30.19,South,181,5.0,12.0,57,0.00,,,0.00,Wunderground v.1.15,2013-06-22 16:42:00,
2013-06-22 12:47:00,81.3,65.1,30.19,WNW,282,0.0,12.0,58,0.00,,,0.00,Wunderground v.1.15,2013-06-22 16:47:00,
2013-06-22 12:52:00,81.6,65.9,30.19,WNW,300,1.0,9.0,59,0.00,,,0.00,Wunderground v.1.15,2013-06-22 16:52:00,
2013-06-22 12:57:00,82.1,65.9,30.19,WSW,248,3.0,9.0,58,0.00,,,0.00,Wunderground v.1.15,2013-06-22 16:57:00,
2013-06-22 13:02:00,82.4,65.1,30.19,WSW,244,0.0,10.0,56,0.00,,,0.00,Wunderground v.1.15,2013-06-22 17:02:00,
2013-06-22 13:07:00,82.6,64.8,30.18,SSW,200,6.0,13.0,55,0.00,,,0.00,Wunderground v.1.15,2013-06-22 17:07:00,
2013-06-22 13:12:00,82.8,64.5,30.18,NW,307,4.0,6.0,54,0.00,,,0.00,Wunderground v.1.15,2013-06-22 17:12:00,
2013-06-22 13:17:00,83.2,64.3,30.18,WSW,253,4.0,14.0,53,0.00,,,0.00,Wunderground v.1.15,2013-06-22 17:17:00,
2013-06-22 13:22:00,83.1,63.1,30.18,SW,221,5.0,14.0,51,0.00,,,0.00,Wunderground v.1.15,2013-06-22 17:22:00,
2013-06-22 13:27:00,83.3,63.8,30.18,SW,221,6.0,16.0,52,0.00,,,0.00,Wunderground v.1.15,2013-06-22 17:27:00,
2013-06-22 13:32:00,83.3,63.8,30.18,WSW,242,3.0,10.0,52,0.00,,,0.00,Wunderground v.1.15,2013-06-22 17:32:00,
2013-06-22 13:37:00,83.4,63.4,30.17,WSW,240,7.0,14.0,51,0.00,,,0.00,Wunderground v.1.15,2013-06-22 17:37:00,
2013-06-22 13:42:00,83.6,64.1,30.17,SW,229,7.0,9.0,52,0.00,,,0.00,Wunderground v.1.15,2013-06-22 17:42:00,
2013-06-22 13:47:00,84.1,64.6,30.17,SSE,166,1.0,12.0,52,0.00,,,0.00,Wunderground v.1.15,2013-06-22 17:47:00,
2013-06-22 13:52:00,84.6,63.9,30.17,West,281,6.0,12.0,50,0.00,,,0.00,Wunderground v.1.15,2013-06-22 17:52:00,
2013-06-22 13:57:00,84.3,64.2,30.17,SW,229,6.0,14.0,51,0.00,,,0.00,Wunderground v.1.15,2013-06-22 17:57:00,
2013-06-22 14:02:00,84.5,63.2,30.17,SSW,192,6.0,13.0,49,0.00,,,0.00,Wunderground v.1.15,2013-06-22 18:02:00,
2013-06-22 14:07:00,84.5,63.2,30.17,WNW,291,4.0,16.0,49,0.00,,,0.00,Wunderground v.1.15,2013-06-22 18:07:00,
2013-06-22 14:12:00,84.5,63.8,30.17,SW,220,12.0,12.0,50,0.00,,,0.00,Wunderground v.1.15,2013-06-22 18:12:00,
2013-06-22 14:17:00,84.4,64.9,30.17,SSW,192,3.0,12.0,52,0.00,,,0.00,Wunderground v.1.15,2013-06-22 18:17:00,
2013-06-22 14:22:00,84.6,62.7,30.17,WSW,247,10.0,11.0,48,0.00,,,0.00,Wunderground v.1.15,2013-06-22 18:22:00,
2013-06-22 14:27:00,84.1,64.0,30.17,West,274,0.0,12.0,51,0.00,,,0.00,Wunderground v.1.15,2013-06-22 18:27:00,
2013-06-22 14:32:00,83.7,63.7,30.16,South,176,0.0,14.0,51,0.00,,,0.00,Wunderground v.1.15,2013-06-22 18:32:00,
2013-06-22 14:37:00,83.9,63.3,30.16,SW,227,4.0,14.0,50,0.00,,,0.00,Wunderground v.1.15,2013-06-22 18:37:00,
2013-06-22 14:42:00,84.3,63.6,30.16,WSW,242,4.0,7.0,50,0.00,,,0.00,Wunderground v.1.15,2013-06-22 18:42:00,
2013-06-22 14:47:00,84.7,64.0,30.16,WSW,250,4.0,12.0,50,0.00,,,0.00,Wunderground v.1.15,2013-06-22 18:47:00,
2013-06-22 14:52:00,84.7,62.8,30.16,NNW,330,5.0,11.0,48,0.00,,,0.00,Wunderground v.1.15,2013-06-22 18:52:00,
2013-06-22 14:57:00,84.8,63.5,30.16,WNW,290,3.0,11.0,49,0.00,,,0.00,Wunderground v.1.15,2013-06-22 18:57:00,
2013-06-22 15:02:00,84.4,63.2,30.15,SSW,196,2.0,10.0,49,0.00,,,0.00,Wunderground v.1.15,2013-06-22 19:02:00,
2013-06-22 15:08:00,83.9,62.7,30.15,SW,224,14.0,17.0,49,0.00,,,0.00,Wunderground v.1.15,2013-06-22 19:08:00,
2013-06-22 15:13:00,83.4,63.4,30.15,NW,321,5.0,11.0,51,0.00,,,0.00,Wunderground v.1.15,2013-06-22 19:13:00,
2013-06-22 15:18:00,83.2,62.6,30.15,WSW,250,5.0,12.0,50,0.00,,,0.00,Wunderground v.1.15,2013-06-22 19:18:00,
2013-06-22 15:23:00,83.2,63.2,30.15,West,281,1.0,11.0,51,0.00,,,0.00,Wunderground v.1.15,2013-06-22 19:23:00,
2013-06-22 15:28:00,83.3,63.3,30.15,WSW,239,5.0,11.0,51,0.00,,,0.00,Wunderground v.1.15,2013-06-22 19:28:00,
2013-06-22 15:33:00,83.7,63.7,30.14,SSW,211,7.0,10.0,51,0.00,,,0.00,Wunderground v.1.15,2013-06-22 19:33:00,
2013-06-22 15:38:00,83.9,63.3,30.14,South,182,3.0,14.0,50,0.00,,,0.00,Wunderground v.1.15,2013-06-22 19:38:00,
2013-06-22 15:43:00,84.2,64.7,30.14,SW,220,6.0,11.0,52,0.00,,,0.00,Wunderground v.1.15,2013-06-22 19:43:00,
2013-06-22 15:48:00,84.5,63.2,30.14,SW,216,2.0,11.0,49,0.00,,,0.00,Wunderground v.1.15,2013-06-22 19:48:00,
2013-06-22 15:53:00,84.9,64.2,30.13,WSW,242,9.0,9.0,50,0.00,,,0.00,Wunderground v.1.15,2013-06-22 19:53:00,
2013-06-22 15:58:00,84.9,63.6,30.13,West,268,4.0,10.0,49,0.00,,,0.00,Wunderground v.1.15,2013-06-22 19:58:00,
2013-06-22 16:03:00,84.9,64.2,30.13,SW,234,10.0,11.0,50,0.00,,,0.00,Wunderground v.1.15,2013-06-22 20:03:00,
2013-06-22 16:08:00,84.6,64.5,30.13,SSW,212,5.0,11.0,51,0.00,,,0.00,Wunderground v.1.15,2013-06-22 20:08:00,
2013-06-22 16:13:00,84.7,64.0,30.12,SSW,208,2.0,7.0,50,0.00,,,0.00,Wunderground v.1.15,2013-06-22 20:13:00,
2013-06-22 16:18:00,84.7,63.4,30.12,SW,234,11.0,13.0,49,0.00,,,0.00,Wunderground v.1.15,2013-06-22 20:18:00,
2013-06-22 16:23:00,84.5,63.8,30.12,WSW,246,3.0,12.0,50,0.00,,,0.00,Wunderground v.1.15,2013-06-22 20:23:00,
2013-06-22 16:28:00,84.4,63.7,30.13,SW,236,1.0,13.0,50,0.00,,,0.00,Wunderground v.1.15,2013-06-22 20:28:00,
2013-06-22 16:33:00,84.4,63.7,30.12,South,188,0.0,10.0,50,0.00,,,0.00,Wunderground v.1.15,2013-06-22 20:33:00,
2013-06-22 16:38:00,84.3,63.6,30.12,SSW,194,4.0,14.0,50,0.00,,,0.00,Wunderground v.1.15,2013-06-22 20:38:00,
2013-06-22 16:43:00,84.3,63.6,30.12,WSW,254,10.0,11.0,50,0.00,,,0.00,Wunderground v.1.15,2013-06-22 20:43:00,
2013-06-22 16:48:00,84.4,64.3,30.12,WSW,238,6.0,11.0,51,0.00,,,0.00,Wunderground v.1.15,2013-06-22 20:48:00,
2013-06-22 16:53:00,84.2,63.5,30.12,WSW,256,3.0,12.0,50,0.00,,,0.00,Wunderground v.1.15,2013-06-22 20:53:00,
2013-06-22 16:58:00,84.1,64.0,30.12,SSW,197,7.0,12.0,51,0.00,,,0.00,Wunderground v.1.15,2013-06-22 20:58:00,
2013-06-22 17:03:00,83.8,64.3,30.12,South,172,6.0,6.0,52,0.00,,,0.00,Wunderground v.1.15,2013-06-22 21:03:00,
2013-06-22 17:08:00,83.5,64.6,30.12,SSW,201,0.0,7.0,53,0.00,,,0.00,Wunderground v.1.15,2013-06-22 21:08:00,
2013-06-22 17:13:00,83.6,63.6,30.12,SSW,210,1.0,7.0,51,0.00,,,0.00,Wunderground v.1.15,2013-06-22 21:13:00,
2013-06-22 17:18:00,83.6,63.6,30.12,SSW,205,2.0,12.0,51,0.00,,,0.00,Wunderground v.1.15,2013-06-22 21:18:00,
2013-06-22 17:23:00,83.6,64.1,30.11,SSE,153,0.0,9.0,52,0.00,,,0.00,Wunderground v.1.15,2013-06-22 21:23:00,
2013-06-22 17:28:00,83.5,62.3,30.12,SW,225,6.0,11.0,49,0.00,,,0.00,Wunderground v.1.15,2013-06-22 21:28:00,
2013-06-22 17:33:00,83.4,62.8,30.12,SW,214,2.0,9.0,50,0.00,,,0.00,Wunderground v.1.15,2013-06-22 21:33:00,
2013-06-22 17:38:00,83.5,62.3,30.11,South,179,4.0,12.0,49,0.00,,,0.00,Wunderground v.1.15,2013-06-22 21:38:00,
2013-06-22 17:43:00,83.2,62.1,30.12,SW,221,0.0,9.0,49,0.00,,,0.00,Wunderground v.1.15,2013-06-22 21:43:00,
2013-06-22 17:49:00,82.9,61.8,30.11,South,177,2.0,9.0,49,0.00,,,0.00,Wunderground v.1.15,2013-06-22 21:49:00,
2013-06-22 17:54:00,82.7,61.0,30.12,SSW,200,1.0,16.0,48,0.00,,,0.00,Wunderground v.1.15,2013-06-22 21:54:00,
2013-06-22 17:59:00,82.5,62.5,30.11,SW,219,6.0,16.0,51,0.00,,,0.00,Wunderground v.1.15,2013-06-22 21:59:00,
2013-06-22 18:04:00,82.4,61.9,30.11,South,180,6.0,6.0,50,0.00,,,0.00,Wunderground v.1.15,2013-06-22 22:04:00,
2013-06-22 18:09:00,82.3,62.4,30.11,SW,218,5.0,9.0,51,0.00,,,0.00,Wunderground v.1.15,2013-06-22 22:09:00,
2013-06-22 18:14:00,82.2,61.7,30.12,SW,221,5.0,9.0,50,0.00,,,0.00,Wunderground v.1.15,2013-06-22 22:14:00,
2013-06-22 18:19:00,82.0,62.1,30.11,SSW,202,2.0,9.0,51,0.00,,,0.00,Wunderground v.1.15,2013-06-22 22:19:00,
2013-06-22 18:24:00,81.8,62.5,30.11,SSE,148,0.0,7.0,52,0.00,,,0.00,Wunderground v.1.15,2013-06-22 22:24:00,
2013-06-22 18:29:00,81.8,61.9,30.11,SSW,213,0.0,7.0,51,0.00,,,0.00,Wunderground v.1.15,2013-06-22 22:29:00,
2013-06-22 18:34:00,81.6,61.7,30.11,South,190,1.0,6.0,51,0.00,,,0.00,Wunderground v.1.15,2013-06-22 22:34:00,
2013-06-22 18:39:00,81.3,62.0,30.11,SW,227,3.0,9.0,52,0.00,,,0.00,Wunderground v.1.15,2013-06-22 22:39:00,
2013-06-22 18:44:00,81.1,61.8,30.10,South,182,0.0,7.0,52,0.00,,,0.00,Wunderground v.1.15,2013-06-22 22:44:00,
2013-06-22 18:49:00,80.9,61.6,30.10,SSW,194,3.0,7.0,52,0.00,,,0.00,Wunderground v.1.15,2013-06-22 22:49:00,
2013-06-22 18:54:00,80.7,61.4,30.10,South,175,4.0,7.0,52,0.00,,,0.00,Wunderground v.1.15,2013-06-22 22:54:00,
2013-06-22 18:59:00,80.6,61.9,30.10,South,190,1.0,7.0,53,0.00,,,0.00,Wunderground v.1.15,2013-06-22 22:59:00,
2013-06-22 19:04:00,80.4,61.7,30.10,South,190,0.0,2.0,53,0.00,,,0.00,Wunderground v.1.15,2013-06-22 23:04:00,
2013-06-22 19:09:00,80.2,62.0,30.10,SW,234,3.0,4.0,54,0.00,,,0.00,Wunderground v.1.15,2013-06-22 23:09:00,
2013-06-22 19:14:00,80.0,62.4,30.10,SSW,210,3.0,6.0,55,0.00,,,0.00,Wunderground v.1.15,2013-06-22 23:14:00,
2013-06-22 19:19:00,79.8,62.2,30.10,SSW,202,5.0,6.0,55,0.00,,,0.00,Wunderground v.1.15,2013-06-22 23:19:00,
2013-06-22 19:24:00,79.7,61.6,30.11,SSE,161,2.0,4.0,54,0.00,,,0.00,Wunderground v.1.15,2013-06-22 23:24:00,
2013-06-22 19:29:00,79.5,61.9,30.11,SSE,161,0.0,7.0,55,0.00,,,0.00,Wunderground v.1.15,2013-06-22 23:29:00,
2013-06-22 19:34:00,79.3,61.7,30.11,SSE,161,2.0,3.0,55,0.00,,,0.00,Wunderground v.1.15,2013-06-22 23:34:00,
2013-06-22 19:39:00,79.1,61.5,30.11,South,170,0.0,5.0,55,0.00,,,0.00,Wunderground v.1.15,2013-06-22 23:39:00,
2013-06-22 19:44:00,78.9,61.4,30.11,SSW,206,0.0,5.0,55,0.00,,,0.00,Wunderground v.1.15,2013-06-22 23:44:00,
2013-06-22 19:49:00,78.7,61.2,30.11,SSW,198,0.0,5.0,55,0.00,,,0.00,Wunderground v.1.15,2013-06-22 23:49:00,
2013-06-22 19:54:00,78.7,61.2,30.11,SSW,195,0.0,5.0,55,0.00,,,0.00,Wunderground v.1.15,2013-06-22 23:54:00,
2013-06-22 19:59:00,78.3,61.8,30.11,South,173,0.0,5.0,57,0.00,,,0.00,Wunderground v.1.15,2013-06-22 23:59:00,
2013-06-22 20:04:00,77.9,61.4,30.11,South,178,0.0,6.0,57,0.00,,,0.00,Wunderground v.1.15,2013-06-23 00:04:00,
2013-06-22 20:09:00,77.6,61.7,30.11,SSW,213,0.0,6.0,58,0.00,,,0.00,Wunderground v.1.15,2013-06-23 00:09:00,
2013-06-22 20:14:00,77.5,62.0,30.12,SSW,201,0.0,6.0,59,0.00,,,0.00,Wunderground v.1.15,2013-06-23 00:14:00,
2013-06-22 20:19:00,77.2,61.8,30.12,South,178,0.0,6.0,59,0.00,,,0.00,Wunderground v.1.15,2013-06-23 00:19:00,
2013-06-22 20:24:00,76.9,62.0,30.12,SSW,202,3.0,7.0,60,0.00,,,0.00,Wunderground v.1.15,2013-06-23 00:24:00,
2013-06-22 20:29:00,76.6,62.1,30.12,SSE,155,0.0,7.0,61,0.00,,,0.00,Wunderground v.1.15,2013-06-23 00:29:00,
2013-06-22 20:34:00,76.2,62.2,30.12,SSW,205,2.0,5.0,62,0.00,,,0.00,Wunderground v.1.15,2013-06-23 00:34:00,
2013-06-22 20:39:00,75.8,62.3,30.12,South,169,0.0,5.0,63,0.00,,,0.00,Wunderground v.1.15,2013-06-23 00:39:00,
2013-06-22 20:44:00,75.5,62.0,30.12,South,173,1.0,7.0,63,0.00,,,0.00,Wunderground v.1.15,2013-06-23 00:44:00,
2013-06-22 20:49:00,75.3,62.3,30.12,SSW,205,2.0,7.0,64,0.00,,,0.00,Wunderground v.1.15,2013-06-23 00:49:00,
2013-06-22 20:54:00,75.1,62.1,30.13,SSW,211,0.0,4.0,64,0.00,,,0.00,Wunderground v.1.15,2013-06-23 00:54:00,
2013-06-22 20:59:00,75.0,62.0,30.13,SSW,206,3.0,4.0,64,0.00,,,0.00,Wunderground v.1.15,2013-06-23 00:59:00,
2013-06-22 21:04:00,74.9,61.9,30.13,South,185,0.0,7.0,64,0.00,,,0.00,Wunderground v.1.15,2013-06-23 01:04:00,
2013-06-22 21:10:00,74.8,61.8,30.13,SSE,152,0.0,2.0,64,0.00,,,0.00,Wunderground v.1.15,2013-06-23 01:10:00,
2013-06-22 21:15:00,74.7,62.1,30.14,SSW,192,4.0,11.0,65,0.00,,,0.00,Wunderground v.1.15,2013-06-23 01:15:00,
2013-06-22 21:20:00,74.6,62.1,30.14,South,191,2.0,3.0,65,0.00,,,0.00,Wunderground v.1.15,2013-06-23 01:20:00,
2013-06-22 21:25:00,74.6,62.1,30.14,SSW,206,2.0,8.0,65,0.00,,,0.00,Wunderground v.1.15,2013-06-23 01:25:00,
2013-06-22 21:30:00,74.4,62.3,30.14,South,186,0.0,3.0,66,0.00,,,0.00,Wunderground v.1.15,2013-06-23 01:30:00,
2013-06-22 21:35:00,74.2,62.1,30.14,West,269,2.0,7.0,66,0.00,,,0.00,Wunderground v.1.15,2013-06-23 01:35:00,
2013-06-22 21:40:00,74.0,62.3,30.14,South,187,3.0,6.0,67,0.00,,,0.00,Wunderground v.1.15,2013-06-23 01:40:00,
2013-06-22 21:45:00,73.8,62.2,30.14,SW,222,2.0,6.0,67,0.00,,,0.00,Wunderground v.1.15,2013-06-23 01:45:00,
2013-06-22 21:50:00,73.6,62.0,30.14,South,176,1.0,4.0,67,0.00,,,0.00,Wunderground v.1.15,2013-06-23 01:50:00,
2013-06-22 21:55:00,73.4,62.2,30.14,SW,221,1.0,5.0,68,0.00,,,0.00,Wunderground v.1.15,2013-06-23 01:55:00,
2013-06-22 22:00:00,73.2,62.0,30.14,SSW,201,0.0,1.0,68,0.00,,,0.00,Wunderground v.1.15,2013-06-23 02:00:00,
2013-06-22 22:05:00,72.9,62.1,30.14,South,173,3.0,3.0,69,0.00,,,0.00,Wunderground v.1.15,2013-06-23 02:05:00,
2013-06-22 22:10:00,72.7,62.3,30.14,SSW,211,0.0,1.0,70,0.00,,,0.00,Wunderground v.1.15,2013-06-23 02:10:00,
2013-06-22 22:15:00,72.5,62.2,30.15,SW,217,2.0,4.0,70,0.00,,,0.00,Wunderground v.1.15,2013-06-23 02:15:00,
2013-06-22 22:20:00,72.4,62.5,30.15,SSW,205,0.0,1.0,71,0.00,,,0.00,Wunderground v.1.15,2013-06-23 02:20:00,
2013-06-22 22:25:00,72.3,62.4,30.15,South,184,1.0,6.0,71,0.00,,,0.00,Wunderground v.1.15,2013-06-23 02:25:00,
2013-06-22 22:30:00,72.3,62.4,30.15,SW,226,2.0,10.0,71,0.00,,,0.00,Wunderground v.1.15,2013-06-23 02:30:00,
2013-06-22 22:35:00,72.2,62.3,30.15,SSW,206,0.0,10.0,71,0.00,,,0.00,Wunderground v.1.15,2013-06-23 02:35:00,
2013-06-22 22:40:00,72.1,62.2,30.15,WSW,244,1.0,3.0,71,0.00,,,0.00,Wunderground v.1.15,2013-06-23 02:40:00,
2013-06-22 22:45:00,72.1,62.2,30.15,South,191,3.0,5.0,71,0.00,,,0.00,Wunderground v.1.15,2013-06-23 02:45:00,
2013-06-22 22:50:00,72.0,62.5,30.15,South,176,3.0,5.0,72,0.00,,,0.00,Wunderground v.1.15,2013-06-23 02:50:00,
2013-06-22 22:56:00,71.9,62.4,30.15,SSW,209,0.0,5.0,72,0.00,,,0.00,Wunderground v.1.15,2013-06-23 02:56:00,
2013-06-22 23:01:00,71.8,62.3,30.15,SW,223,1.0,6.0,72,0.00,,,0.00,Wunderground v.1.15,2013-06-23 03:01:00,
2013-06-22 23:06:00,71.7,62.2,30.15,SE,144,5.0,7.0,72,0.00,,,0.00,Wunderground v.1.15,2013-06-23 03:06:00,
2013-06-22 23:11:00,71.7,62.2,30.15,SSW,192,0.0,3.0,72,0.00,,,0.00,Wunderground v.1.15,2013-06-23 03:11:00,
2013-06-22 23:16:00,71.6,62.1,30.15,South,179,0.0,3.0,72,0.00,,,0.00,Wunderground v.1.15,2013-06-23 03:16:00,
2013-06-22 23:21:00,71.6,62.1,30.16,SW,219,4.0,4.0,72,0.00,,,0.00,Wunderground v.1.15,2013-06-23 03:21:00,
2013-06-22 23:26:00,71.6,62.1,30.16,South,188,0.0,9.0,72,0.00,,,0.00,Wunderground v.1.15,2013-06-23 03:26:00,
2013-06-22 23:31:00,71.5,62.0,30.16,WSW,248,5.0,5.0,72,0.00,,,0.00,Wunderground v.1.15,2013-06-23 03:31:00,
2013-06-22 23:36:00,71.5,62.0,30.15,SSW,209,7.0,7.0,72,0.00,,,0.00,Wunderground v.1.15,2013-06-23 03:36:00,
2013-06-22 23:41:00,71.4,61.9,30.15,SW,222,4.0,4.0,72,0.00,,,0.00,Wunderground v.1.15,2013-06-23 03:41:00,
2013-06-22 23:46:00,71.3,61.8,30.15,SSW,194,3.0,5.0,72,0.00,,,0.00,Wunderground v.1.15,2013-06-23 03:46:00,
2013-06-22 23:51:00,71.3,61.8,30.15,SW,221,0.0,2.0,72,0.00,,,0.00,Wunderground v.1.15,2013-06-23 03:51:00,
2013-06-22 23:56:00,71.3,61.8,30.15,SSW,210,2.0,5.0,72,0.00,,,0.00,Wunderground v.1.15,2013-06-23 03:56:00,